sensor_id;sensor_type;location;lat;lon;timestamp;pressure;altitude;pressure_sealevel;temperature;humidity
50364;BME280;36272;59.400;17.982;2023-04-10T00:02:00;102779.41;;;2.79;62.67
50364;BME280;36272;59.400;17.982;2023-04-10T00:07:01;102770.25;;;2.72;62.81
50364;BME280;36272;59.400;17.982;2023-04-10T00:12:03;102776.97;;;2.64;63.10
50364;BME280;36272;59.400;17.982;2023-04-10T00:17:05;102771.22;;;2.59;63.33
50364;BME280;36272;59.400;17.982;2023-04-10T00:22:06;102770.00;;;2.52;63.34
50364;BME280;36272;59.400;17.982;2023-04-10T00:27:08;102770.38;;;2.47;63.51
50364;BME280;36272;59.400;17.982;2023-04-10T00:32:10;102776.13;;;2.41;63.51
50364;BME280;36272;59.400;17.982;2023-04-10T00:37:11;102768.88;;;2.32;63.60
50364;BME280;36272;59.400;17.982;2023-04-10T00:42:13;102772.84;;;2.26;63.71
50364;BME280;36272;59.400;17.982;2023-04-10T00:47:15;102770.44;;;2.23;63.59
50364;BME280;36272;59.400;17.982;2023-04-10T00:52:17;102768.03;;;2.20;63.76
50364;BME280;36272;59.400;17.982;2023-04-10T00:57:19;102772.72;;;2.16;63.63
50364;BME280;36272;59.400;17.982;2023-04-10T01:02:20;102768.72;;;2.11;63.66
50364;BME280;36272;59.400;17.982;2023-04-10T01:13:05;102762.22;;;2.03;63.79
50364;BME280;36272;59.400;17.982;2023-04-10T01:18:18;102764.38;;;1.98;63.96
50364;BME280;36272;59.400;17.982;2023-04-10T01:29:00;102755.78;;;1.83;64.02
50364;BME280;36272;59.400;17.982;2023-04-10T01:34:09;102755.91;;;1.82;64.30
50364;BME280;36272;59.400;17.982;2023-04-10T01:39:12;102756.25;;;1.77;64.23
50364;BME280;36272;59.400;17.982;2023-04-10T01:44:14;102763.56;;;1.73;64.34
50364;BME280;36272;59.400;17.982;2023-04-10T01:49:19;102758.00;;;1.65;64.37
50364;BME280;36272;59.400;17.982;2023-04-10T01:54:21;102754.03;;;1.59;64.46
50364;BME280;36272;59.400;17.982;2023-04-10T01:59:23;102761.56;;;1.53;64.66
50364;BME280;36272;59.400;17.982;2023-04-10T02:04:26;102757.44;;;1.48;64.80
50364;BME280;36272;59.400;17.982;2023-04-10T02:09:46;102756.50;;;1.50;65.09
50364;BME280;36272;59.400;17.982;2023-04-10T02:14:54;102758.63;;;1.44;64.91
50364;BME280;36272;59.400;17.982;2023-04-10T02:19:57;102754.63;;;1.39;64.73
50364;BME280;36272;59.400;17.982;2023-04-10T02:24:59;102748.00;;;1.33;64.81
50364;BME280;36272;59.400;17.982;2023-04-10T02:30:02;102751.81;;;1.29;64.96
50364;BME280;36272;59.400;17.982;2023-04-10T02:35:04;102756.56;;;1.24;64.97
50364;BME280;36272;59.400;17.982;2023-04-10T02:40:06;102743.72;;;1.19;64.99
50364;BME280;36272;59.400;17.982;2023-04-10T02:45:08;102753.75;;;1.14;65.02
50364;BME280;36272;59.400;17.982;2023-04-10T02:50:10;102749.34;;;1.01;65.16
50364;BME280;36272;59.400;17.982;2023-04-10T02:55:12;102751.38;;;0.98;65.19
50364;BME280;36272;59.400;17.982;2023-04-10T03:00:14;102745.38;;;0.96;65.41
50364;BME280;36272;59.400;17.982;2023-04-10T03:05:16;102749.78;;;0.95;65.41
50364;BME280;36272;59.400;17.982;2023-04-10T03:10:18;102737.69;;;0.93;65.46
50364;BME280;36272;59.400;17.982;2023-04-10T03:15:19;102744.72;;;0.92;65.35
50364;BME280;36272;59.400;17.982;2023-04-10T03:20:21;102749.25;;;0.90;65.67
50364;BME280;36272;59.400;17.982;2023-04-10T03:25:23;102744.75;;;0.79;65.50
50364;BME280;36272;59.400;17.982;2023-04-10T03:30:24;102744.97;;;0.76;65.68
50364;BME280;36272;59.400;17.982;2023-04-10T03:35:26;102741.06;;;0.69;65.75
50364;BME280;36272;59.400;17.982;2023-04-10T03:40:28;102741.31;;;0.66;65.80
50364;BME280;36272;59.400;17.982;2023-04-10T03:45:29;102749.22;;;0.66;65.85
50364;BME280;36272;59.400;17.982;2023-04-10T03:50:31;102737.09;;;0.63;66.02
50364;BME280;36272;59.400;17.982;2023-04-10T03:55:33;102744.16;;;0.63;66.09
50364;BME280;36272;59.400;17.982;2023-04-10T04:00:34;102746.69;;;0.64;66.31
50364;BME280;36272;59.400;17.982;2023-04-10T04:05:36;102743.09;;;0.65;66.10
50364;BME280;36272;59.400;17.982;2023-04-10T04:10:38;102743.22;;;0.64;65.92
50364;BME280;36272;59.400;17.982;2023-04-10T04:15:40;102737.22;;;0.62;66.13
50364;BME280;36272;59.400;17.982;2023-04-10T04:20:42;102740.59;;;0.64;66.03
50364;BME280;36272;59.400;17.982;2023-04-10T04:25:44;102742.88;;;0.68;66.40
50364;BME280;36272;59.400;17.982;2023-04-10T04:30:46;102741.19;;;0.67;66.50
50364;BME280;36272;59.400;17.982;2023-04-10T04:35:48;102741.72;;;0.72;66.65
50364;BME280;36272;59.400;17.982;2023-04-10T04:40:51;102745.72;;;0.78;66.69
50364;BME280;36272;59.400;17.982;2023-04-10T04:45:52;102753.84;;;0.88;66.69
50364;BME280;36272;59.400;17.982;2023-04-10T04:50:54;102755.91;;;0.96;66.73
50364;BME280;36272;59.400;17.982;2023-04-10T04:55:56;102751.16;;;1.01;66.68
50364;BME280;36272;59.400;17.982;2023-04-10T05:01:02;102744.25;;;1.11;66.90
50364;BME280;36272;59.400;17.982;2023-04-10T05:06:04;102758.91;;;1.15;66.77
50364;BME280;36272;59.400;17.982;2023-04-10T05:11:06;102752.47;;;1.19;66.95
50364;BME280;36272;59.400;17.982;2023-04-10T05:16:08;102758.03;;;1.28;66.94
50364;BME280;36272;59.400;17.982;2023-04-10T05:21:10;102759.38;;;1.33;66.89
50364;BME280;36272;59.400;17.982;2023-04-10T05:26:11;102750.94;;;1.41;67.09
50364;BME280;36272;59.400;17.982;2023-04-10T05:31:13;102745.81;;;1.51;67.16
50364;BME280;36272;59.400;17.982;2023-04-10T05:36:15;102739.03;;;1.60;67.43
50364;BME280;36272;59.400;17.982;2023-04-10T05:41:18;102736.66;;;1.68;67.56
50364;BME280;36272;59.400;17.982;2023-04-10T05:46:20;102742.72;;;1.82;67.85
50364;BME280;36272;59.400;17.982;2023-04-10T05:51:21;102738.94;;;1.97;68.10
50364;BME280;36272;59.400;17.982;2023-04-10T05:56:23;102737.88;;;2.11;68.17
50364;BME280;36272;59.400;17.982;2023-04-10T06:01:25;102729.88;;;2.24;68.27
50364;BME280;36272;59.400;17.982;2023-04-10T06:06:27;102742.13;;;2.36;68.37
50364;BME280;36272;59.400;17.982;2023-04-10T06:11:30;102727.25;;;2.47;68.62
50364;BME280;36272;59.400;17.982;2023-04-10T06:16:31;102722.69;;;2.60;68.74
50364;BME280;36272;59.400;17.982;2023-04-10T06:21:33;102719.09;;;2.73;69.01
50364;BME280;36272;59.400;17.982;2023-04-10T06:26:36;102714.25;;;2.89;69.07
50364;BME280;36272;59.400;17.982;2023-04-10T06:31:37;102711.00;;;3.08;68.96
50364;BME280;36272;59.400;17.982;2023-04-10T06:36:39;102718.78;;;3.21;69.18
50364;BME280;36272;59.400;17.982;2023-04-10T06:41:41;102711.16;;;3.39;69.03
50364;BME280;36272;59.400;17.982;2023-04-10T06:46:43;102711.94;;;3.51;69.02
50364;BME280;36272;59.400;17.982;2023-04-10T06:51:44;102707.53;;;3.73;68.83
50364;BME280;36272;59.400;17.982;2023-04-10T06:56:48;102709.47;;;3.92;68.61
50364;BME280;36272;59.400;17.982;2023-04-10T07:01:50;102708.75;;;4.11;68.40
50364;BME280;36272;59.400;17.982;2023-04-10T07:06:51;102699.34;;;4.28;68.35
50364;BME280;36272;59.400;17.982;2023-04-10T07:11:53;102692.19;;;4.50;67.93
50364;BME280;36272;59.400;17.982;2023-04-10T07:16:54;102705.25;;;4.73;67.57
50364;BME280;36272;59.400;17.982;2023-04-10T07:21:56;102695.53;;;4.93;67.34
50364;BME280;36272;59.400;17.982;2023-04-10T07:26:58;102702.28;;;5.17;66.88
50364;BME280;36272;59.400;17.982;2023-04-10T07:32:01;102699.50;;;5.38;66.61
50364;BME280;36272;59.400;17.982;2023-04-10T07:37:02;102714.75;;;5.56;66.21
50364;BME280;36272;59.400;17.982;2023-04-10T07:42:04;102696.28;;;5.74;65.67
50364;BME280;36272;59.400;17.982;2023-04-10T07:47:06;102700.03;;;5.91;65.26
50364;BME280;36272;59.400;17.982;2023-04-10T07:52:13;102695.00;;;6.07;64.61
50364;BME280;36272;59.400;17.982;2023-04-10T07:57:14;102718.84;;;6.27;64.01
50364;BME280;36272;59.400;17.982;2023-04-10T08:02:16;102704.06;;;6.52;63.22
50364;BME280;36272;59.400;17.982;2023-04-10T08:07:19;102679.31;;;6.80;62.59
50364;BME280;36272;59.400;17.982;2023-04-10T08:12:24;102697.38;;;7.04;61.86
50364;BME280;36272;59.400;17.982;2023-04-10T08:17:26;102699.28;;;7.30;61.40
50364;BME280;36272;59.400;17.982;2023-04-10T08:22:28;102692.59;;;7.62;60.65
50364;BME280;36272;59.400;17.982;2023-04-10T08:27:29;102698.88;;;7.79;60.36
50364;BME280;36272;59.400;17.982;2023-04-10T08:32:31;102691.84;;;7.96;59.99
50364;BME280;36272;59.400;17.982;2023-04-10T08:37:33;102685.09;;;8.10;59.62
50364;BME280;36272;59.400;17.982;2023-04-10T08:42:35;102674.00;;;8.23;59.21
50364;BME280;36272;59.400;17.982;2023-04-10T08:47:37;102663.59;;;8.38;58.84
50364;BME280;36272;59.400;17.982;2023-04-10T08:52:43;102657.84;;;8.51;57.18
50364;BME280;36272;59.400;17.982;2023-04-10T08:57:46;102662.22;;;8.69;57.16
50364;BME280;36272;59.400;17.982;2023-04-10T09:02:48;102668.44;;;8.86;56.11
50364;BME280;36272;59.400;17.982;2023-04-10T09:07:55;102649.13;;;9.00;55.96
50364;BME280;36272;59.400;17.982;2023-04-10T09:12:57;102652.81;;;9.16;56.04
50364;BME280;36272;59.400;17.982;2023-04-10T09:18:02;102637.97;;;9.30;55.87
50364;BME280;36272;59.400;17.982;2023-04-10T09:23:21;102633.59;;;9.53;56.05
50364;BME280;36272;59.400;17.982;2023-04-10T09:28:23;102634.28;;;9.64;55.08
50364;BME280;36272;59.400;17.982;2023-04-10T09:33:26;102626.38;;;9.79;54.20
50364;BME280;36272;59.400;17.982;2023-04-10T09:38:28;102628.50;;;10.00;53.63
50364;BME280;36272;59.400;17.982;2023-04-10T09:43:30;102622.59;;;10.21;52.43
50364;BME280;36272;59.400;17.982;2023-04-10T09:48:32;102619.03;;;10.37;52.13
50364;BME280;36272;59.400;17.982;2023-04-10T09:53:47;102606.91;;;10.58;51.68
50364;BME280;36272;59.400;17.982;2023-04-10T09:58:50;102609.50;;;10.75;51.96
50364;BME280;36272;59.400;17.982;2023-04-10T10:03:53;102593.50;;;10.90;50.88
50364;BME280;36272;59.400;17.982;2023-04-10T10:08:55;102601.59;;;11.05;51.02
50364;BME280;36272;59.400;17.982;2023-04-10T10:13:59;102590.75;;;11.21;51.05
50364;BME280;36272;59.400;17.982;2023-04-10T10:19:29;102577.47;;;11.43;50.16
50364;BME280;36272;59.400;17.982;2023-04-10T10:24:32;102586.66;;;11.64;49.97
50364;BME280;36272;59.400;17.982;2023-04-10T10:29:36;102577.97;;;11.92;49.21
50364;BME280;36272;59.400;17.982;2023-04-10T10:34:39;102584.97;;;12.23;49.14
50364;BME280;36272;59.400;17.982;2023-04-10T10:40:03;102564.50;;;12.52;48.61
50364;BME280;36272;59.400;17.982;2023-04-10T10:45:11;102551.66;;;12.69;48.43
50364;BME280;36272;59.400;17.982;2023-04-10T10:50:14;102555.97;;;12.91;48.14
50364;BME280;36272;59.400;17.982;2023-04-10T11:00:24;102533.63;;;13.76;46.02
50364;BME280;36272;59.400;17.982;2023-04-10T11:05:55;102524.09;;;14.22;45.93
50364;BME280;36272;59.400;17.982;2023-04-10T11:16:16;102524.25;;;18.41;43.03
50364;BME280;36272;59.400;17.982;2023-04-10T11:21:22;102514.50;;;24.85;35.40
50364;BME280;36272;59.400;17.982;2023-04-10T11:36:55;102494.66;;;34.42;27.99
50364;BME280;36272;59.400;17.982;2023-04-10T11:41:57;102496.56;;;35.94;26.59
50364;BME280;36272;59.400;17.982;2023-04-10T11:46:59;102493.09;;;36.93;25.51
50364;BME280;36272;59.400;17.982;2023-04-10T11:52:01;102475.38;;;37.57;25.08
50364;BME280;36272;59.400;17.982;2023-04-10T11:57:07;102473.19;;;38.32;24.89
50364;BME280;36272;59.400;17.982;2023-04-10T12:02:14;102457.66;;;38.85;24.42
50364;BME280;36272;59.400;17.982;2023-04-10T12:07:16;102456.19;;;38.95;24.17
50364;BME280;36272;59.400;17.982;2023-04-10T12:12:18;102443.41;;;38.94;24.31
50364;BME280;36272;59.400;17.982;2023-04-10T12:17:20;102445.22;;;38.82;23.68
50364;BME280;36272;59.400;17.982;2023-04-10T12:22:22;102441.84;;;38.96;23.05
50364;BME280;36272;59.400;17.982;2023-04-10T12:27:26;102426.63;;;38.67;23.52
50364;BME280;36272;59.400;17.982;2023-04-10T12:32:28;102428.09;;;38.07;23.52
50364;BME280;36272;59.400;17.982;2023-04-10T12:37:50;102416.78;;;37.17;23.57
50364;BME280;36272;59.400;17.982;2023-04-10T12:42:52;102413.56;;;35.67;23.61
50364;BME280;36272;59.400;17.982;2023-04-10T12:47:54;102400.94;;;34.76;23.68
50364;BME280;36272;59.400;17.982;2023-04-10T12:53:05;102385.81;;;33.77;24.08
50364;BME280;36272;59.400;17.982;2023-04-10T12:58:16;102391.28;;;32.89;25.03
50364;BME280;36272;59.400;17.982;2023-04-10T13:03:18;102390.13;;;32.60;25.65
50364;BME280;36272;59.400;17.982;2023-04-10T13:08:20;102373.28;;;31.87;25.77
50364;BME280;36272;59.400;17.982;2023-04-10T13:13:22;102367.97;;;31.21;26.36
50364;BME280;36272;59.400;17.982;2023-04-10T13:18:24;102365.66;;;31.58;26.52
50364;BME280;36272;59.400;17.982;2023-04-10T13:23:26;102356.59;;;31.49;26.55
50364;BME280;36272;59.400;17.982;2023-04-10T13:28:27;102355.59;;;31.62;26.92
50364;BME280;36272;59.400;17.982;2023-04-10T13:33:29;102348.31;;;31.22;26.90
50364;BME280;36272;59.400;17.982;2023-04-10T13:38:31;102343.41;;;30.84;26.58
50364;BME280;36272;59.400;17.982;2023-04-10T13:43:33;102331.09;;;30.50;27.02
50364;BME280;36272;59.400;17.982;2023-04-10T13:48:39;102307.84;;;30.24;27.01
50364;BME280;36272;59.400;17.982;2023-04-10T13:53:41;102312.34;;;29.57;26.84
50364;BME280;36272;59.400;17.982;2023-04-10T13:58:45;102304.16;;;28.42;27.79
50364;BME280;36272;59.400;17.982;2023-04-10T14:03:46;102313.06;;;27.92;28.79
50364;BME280;36272;59.400;17.982;2023-04-10T14:08:48;102310.50;;;28.42;28.60
50364;BME280;36272;59.400;17.982;2023-04-10T14:13:50;102298.56;;;29.34;28.55
50364;BME280;36272;59.400;17.982;2023-04-10T14:18:52;102305.88;;;30.16;27.14
50364;BME280;36272;59.400;17.982;2023-04-10T14:23:54;102301.69;;;29.96;27.62
50364;BME280;36272;59.400;17.982;2023-04-10T14:29:01;102282.84;;;29.89;27.44
50364;BME280;36272;59.400;17.982;2023-04-10T14:34:02;102292.38;;;30.15;27.51
50364;BME280;36272;59.400;17.982;2023-04-10T14:39:04;102289.81;;;29.87;27.76
50364;BME280;36272;59.400;17.982;2023-04-10T14:44:05;102282.50;;;29.36;28.05
50364;BME280;36272;59.400;17.982;2023-04-10T14:49:07;102270.13;;;29.02;28.83
50364;BME280;36272;59.400;17.982;2023-04-10T14:54:09;102250.47;;;28.44;28.90
50364;BME280;36272;59.400;17.982;2023-04-10T14:59:11;102258.91;;;27.92;28.75
50364;BME280;36272;59.400;17.982;2023-04-10T15:04:13;102250.66;;;26.93;29.07
50364;BME280;36272;59.400;17.982;2023-04-10T15:09:15;102240.09;;;25.89;29.45
50364;BME280;36272;59.400;17.982;2023-04-10T15:14:16;102238.41;;;24.94;30.42
50364;BME280;36272;59.400;17.982;2023-04-10T15:19:21;102218.00;;;23.89;30.76
50364;BME280;36272;59.400;17.982;2023-04-10T15:24:22;102216.63;;;22.88;31.08
50364;BME280;36272;59.400;17.982;2023-04-10T15:29:24;102213.97;;;21.82;32.77
50364;BME280;36272;59.400;17.982;2023-04-10T15:34:26;102198.75;;;20.66;34.65
50364;BME280;36272;59.400;17.982;2023-04-10T15:39:28;102193.25;;;19.60;33.93
50364;BME280;36272;59.400;17.982;2023-04-10T15:44:31;102198.22;;;18.88;34.46
50364;BME280;36272;59.400;17.982;2023-04-10T15:49:33;102186.38;;;18.36;34.85
50364;BME280;36272;59.400;17.982;2023-04-10T15:54:34;102189.00;;;17.83;35.77
50364;BME280;36272;59.400;17.982;2023-04-10T15:59:36;102179.28;;;17.28;36.65
50364;BME280;36272;59.400;17.982;2023-04-10T16:04:38;102175.59;;;16.80;36.78
50364;BME280;36272;59.400;17.982;2023-04-10T16:09:39;102155.53;;;16.57;36.60
50364;BME280;36272;59.400;17.982;2023-04-10T16:14:41;102152.41;;;16.42;37.19
50364;BME280;36272;59.400;17.982;2023-04-10T16:19:43;102148.06;;;16.22;37.19
50364;BME280;36272;59.400;17.982;2023-04-10T16:24:45;102130.66;;;16.18;37.07
50364;BME280;36272;59.400;17.982;2023-04-10T16:29:46;102124.78;;;15.84;37.43
50364;BME280;36272;59.400;17.982;2023-04-10T16:34:48;102116.03;;;15.44;38.12
50364;BME280;36272;59.400;17.982;2023-04-10T16:39:50;102110.97;;;15.04;38.12
50364;BME280;36272;59.400;17.982;2023-04-10T16:44:52;102112.22;;;14.63;38.29
50364;BME280;36272;59.400;17.982;2023-04-10T16:49:54;102106.22;;;14.15;38.41
50364;BME280;36272;59.400;17.982;2023-04-10T16:54:56;102111.47;;;13.76;38.96
50364;BME280;36272;59.400;17.982;2023-04-10T16:59:57;102103.47;;;13.43;39.56
50364;BME280;36272;59.400;17.982;2023-04-10T17:04:59;102105.25;;;13.08;40.20
50364;BME280;36272;59.400;17.982;2023-04-10T17:10:02;102090.56;;;12.77;40.39
50364;BME280;36272;59.400;17.982;2023-04-10T17:15:04;102082.00;;;12.47;41.24
50364;BME280;36272;59.400;17.982;2023-04-10T17:20:06;102076.94;;;12.17;41.38
50364;BME280;36272;59.400;17.982;2023-04-10T17:25:10;102072.00;;;11.85;41.98
50364;BME280;36272;59.400;17.982;2023-04-10T17:30:12;102052.84;;;11.53;42.13
50364;BME280;36272;59.400;17.982;2023-04-10T17:35:14;102061.91;;;11.24;42.47
50364;BME280;36272;59.400;17.982;2023-04-10T17:40:16;102052.56;;;10.91;42.93
50364;BME280;36272;59.400;17.982;2023-04-10T17:45:18;102050.06;;;10.68;43.53
50364;BME280;36272;59.400;17.982;2023-04-10T17:50:19;102040.38;;;10.45;43.89
50364;BME280;36272;59.400;17.982;2023-04-10T17:55:21;102045.63;;;10.23;44.21
50364;BME280;36272;59.400;17.982;2023-04-10T18:00:23;102051.94;;;10.01;44.81
50364;BME280;36272;59.400;17.982;2023-04-10T18:05:26;102034.00;;;9.79;45.74
50364;BME280;36272;59.400;17.982;2023-04-10T18:10:27;102034.06;;;9.56;45.92
50364;BME280;36272;59.400;17.982;2023-04-10T18:15:29;102042.44;;;9.38;46.06
50364;BME280;36272;59.400;17.982;2023-04-10T18:20:31;102036.41;;;9.21;46.72
50364;BME280;36272;59.400;17.982;2023-04-10T18:25:33;102026.06;;;9.03;46.61
50364;BME280;36272;59.400;17.982;2023-04-10T18:30:34;102030.16;;;8.90;47.47
50364;BME280;36272;59.400;17.982;2023-04-10T18:35:39;102031.78;;;8.76;47.68
50364;BME280;36272;59.400;17.982;2023-04-10T18:40:40;102021.66;;;8.63;47.87
50364;BME280;36272;59.400;17.982;2023-04-10T18:45:42;102014.44;;;8.49;48.00
50364;BME280;36272;59.400;17.982;2023-04-10T18:50:44;102018.81;;;8.33;48.65
50364;BME280;36272;59.400;17.982;2023-04-10T18:55:53;101996.97;;;8.15;49.71
50364;BME280;36272;59.400;17.982;2023-04-10T19:00:55;102003.81;;;8.01;49.48
50364;BME280;36272;59.400;17.982;2023-04-10T19:05:57;102005.03;;;7.90;49.57
50364;BME280;36272;59.400;17.982;2023-04-10T19:10:58;101999.09;;;7.80;49.87
50364;BME280;36272;59.400;17.982;2023-04-10T19:16:03;101971.34;;;7.66;50.76
50364;BME280;36272;59.400;17.982;2023-04-10T19:21:05;101982.88;;;7.50;50.79
50364;BME280;36272;59.400;17.982;2023-04-10T19:26:07;101980.91;;;7.35;51.20
50364;BME280;36272;59.400;17.982;2023-04-10T19:31:10;101968.78;;;7.24;51.64
50364;BME280;36272;59.400;17.982;2023-04-10T19:36:14;101955.00;;;7.12;52.18
50364;BME280;36272;59.400;17.982;2023-04-10T19:41:16;101953.34;;;7.03;52.32
50364;BME280;36272;59.400;17.982;2023-04-10T19:46:19;101944.72;;;6.93;52.35
50364;BME280;36272;59.400;17.982;2023-04-10T19:51:21;101948.72;;;6.80;52.78
50364;BME280;36272;59.400;17.982;2023-04-10T19:56:23;101933.78;;;6.71;53.15
50364;BME280;36272;59.400;17.982;2023-04-10T20:01:24;101933.28;;;6.59;53.47
50364;BME280;36272;59.400;17.982;2023-04-10T20:06:26;101918.47;;;6.48;53.58
50364;BME280;36272;59.400;17.982;2023-04-10T20:11:28;101908.84;;;6.39;53.92
50364;BME280;36272;59.400;17.982;2023-04-10T20:16:30;101894.69;;;6.30;54.19
50364;BME280;36272;59.400;17.982;2023-04-10T20:21:32;101894.19;;;6.18;54.85
50364;BME280;36272;59.400;17.982;2023-04-10T20:26:34;101870.28;;;6.10;54.85
50364;BME280;36272;59.400;17.982;2023-04-10T20:31:36;101867.59;;;6.02;54.99
50364;BME280;36272;59.400;17.982;2023-04-10T20:36:37;101867.06;;;5.90;55.07
50364;BME280;36272;59.400;17.982;2023-04-10T20:41:39;101857.56;;;5.79;55.36
50364;BME280;36272;59.400;17.982;2023-04-10T20:46:41;101861.84;;;5.63;56.28
50364;BME280;36272;59.400;17.982;2023-04-10T20:51:42;101852.84;;;5.48;56.92
50364;BME280;36272;59.400;17.982;2023-04-10T20:56:44;101832.56;;;5.39;57.17
50364;BME280;36272;59.400;17.982;2023-04-10T21:01:47;101820.75;;;5.33;56.97
50364;BME280;36272;59.400;17.982;2023-04-10T21:06:48;101808.97;;;5.27;56.84
50364;BME280;36272;59.400;17.982;2023-04-10T21:11:50;101803.63;;;5.19;57.16
50364;BME280;36272;59.400;17.982;2023-04-10T21:16:51;101806.41;;;5.09;57.50
50364;BME280;36272;59.400;17.982;2023-04-10T21:21:53;101789.66;;;5.00;57.93
50364;BME280;36272;59.400;17.982;2023-04-10T21:26:56;101786.59;;;4.87;58.44
50364;BME280;36272;59.400;17.982;2023-04-10T21:32:03;101778.91;;;4.75;58.69
50364;BME280;36272;59.400;17.982;2023-04-10T21:37:05;101782.19;;;4.69;58.75
50364;BME280;36272;59.400;17.982;2023-04-10T21:42:08;101771.38;;;4.63;58.45
50364;BME280;36272;59.400;17.982;2023-04-10T21:47:10;101764.53;;;4.52;58.66
50364;BME280;36272;59.400;17.982;2023-04-10T21:52:11;101757.88;;;4.47;58.80
50364;BME280;36272;59.400;17.982;2023-04-10T21:57:13;101755.16;;;4.39;59.34
50364;BME280;36272;59.400;17.982;2023-04-10T22:02:15;101747.84;;;4.33;59.34
50364;BME280;36272;59.400;17.982;2023-04-10T22:07:16;101741.19;;;4.29;59.30
50364;BME280;36272;59.400;17.982;2023-04-10T22:12:18;101740.13;;;4.22;59.65
50364;BME280;36272;59.400;17.982;2023-04-10T22:17:20;101741.47;;;4.18;59.63
50364;BME280;36272;59.400;17.982;2023-04-10T22:22:21;101742.22;;;4.10;59.74
50364;BME280;36272;59.400;17.982;2023-04-10T22:27:23;101738.38;;;4.04;59.79
50364;BME280;36272;59.400;17.982;2023-04-10T22:32:30;101724.94;;;3.97;60.32
50364;BME280;36272;59.400;17.982;2023-04-10T22:37:32;101718.41;;;3.92;60.26
50364;BME280;36272;59.400;17.982;2023-04-10T22:42:33;101701.47;;;3.84;60.36
50364;BME280;36272;59.400;17.982;2023-04-10T22:47:35;101708.38;;;3.77;60.55
50364;BME280;36272;59.400;17.982;2023-04-10T22:52:37;101704.69;;;3.70;60.70
50364;BME280;36272;59.400;17.982;2023-04-10T22:57:39;101692.88;;;3.64;60.91
50364;BME280;36272;59.400;17.982;2023-04-10T23:02:40;101682.91;;;3.58;60.77
50364;BME280;36272;59.400;17.982;2023-04-10T23:07:42;101679.06;;;3.52;60.96
50364;BME280;36272;59.400;17.982;2023-04-10T23:12:44;101667.56;;;3.44;61.08
50364;BME280;36272;59.400;17.982;2023-04-10T23:17:45;101664.56;;;3.38;61.17
50364;BME280;36272;59.400;17.982;2023-04-10T23:22:47;101653.72;;;3.32;61.31
50364;BME280;36272;59.400;17.982;2023-04-10T23:27:49;101650.88;;;3.25;61.73
50364;BME280;36272;59.400;17.982;2023-04-10T23:32:50;101639.09;;;3.19;61.75
50364;BME280;36272;59.400;17.982;2023-04-10T23:37:52;101627.16;;;3.15;62.07
50364;BME280;36272;59.400;17.982;2023-04-10T23:42:54;101620.34;;;3.12;62.14
50364;BME280;36272;59.400;17.982;2023-04-10T23:47:56;101605.63;;;3.10;62.08
50364;BME280;36272;59.400;17.982;2023-04-10T23:52:57;101603.44;;;3.05;62.34
50364;BME280;36272;59.400;17.982;2023-04-10T23:58:01;101585.38;;;3.01;62.57
